Terminal Aerodrome Forecast
Issued by NWS

Current Version | Previous Version | Graphics & Text | Print | Product List | Glossary On
Versions: 1 2 3 4 5 6 7 8 9 10 11 12 13 14 15 16 17 18 19 20 21 22
822
FTUS41 KILN 010534
TAFLCK
TAF
KLCK 010534Z 0106/0206 25006KT P6SM OVC035
      TEMPO 0106/0107 26015G25KT OVC025
     FM010700 26010G18KT P6SM OVC025
     FM011600 25012G22KT P6SM OVC035
     FM020000 25007KT P6SM OVC025=

USA.gov is the U.S. government's official web portal to all federal, state and local government web resources and services.